createdAt,value
2022-08-05T00:01:35.455Z,100242.27
2022-08-05T00:04:05.202Z,100241.24
2022-08-05T00:06:36.472Z,100238.70
2022-08-05T00:09:14.786Z,100238.75
2022-08-05T00:11:48.764Z,100235.92
2022-08-05T00:14:27.632Z,100235.64
2022-08-05T00:16:57.452Z,100232.63
2022-08-05T00:19:33.684Z,100228.23
2022-08-05T00:22:11.294Z,100230.90
2022-08-05T00:24:42.194Z,100230.33
2022-08-05T00:27:14.061Z,100228.29
2022-08-05T00:29:45.131Z,100226.63
2022-08-05T00:32:14.947Z,100221.70
2022-08-05T00:35:04.312Z,100220.68
2022-08-05T00:37:50.650Z,100222.17
2022-08-05T00:40:27.865Z,100217.73
2022-08-05T00:43:00.008Z,100219.83
2022-08-05T00:45:38.801Z,100219.41
2022-08-05T00:48:13.388Z,100221.92
2022-08-05T00:50:44.233Z,100224.23
2022-08-05T00:53:45.050Z,100224.02
2022-08-05T00:56:05.527Z,100222.80
2022-08-05T00:58:36.828Z,100224.85
2022-08-05T01:01:08.534Z,100223.29
2022-08-05T01:03:38.666Z,100222.80
2022-08-05T01:06:14.164Z,100220.80
2022-08-05T01:08:44.610Z,100219.71
2022-08-05T01:11:37.282Z,100217.34
2022-08-05T01:14:34.750Z,100215.83
2022-08-05T01:17:09.007Z,100214.95
2022-08-05T01:20:00.962Z,100208.86
2022-08-05T01:22:47.008Z,100208.67
2022-08-05T01:25:39.663Z,100212.96
2022-08-05T01:28:41.027Z,100209.45
2022-08-05T01:31:28.062Z,100213.34
2022-08-05T01:34:08.435Z,100213.88
2022-08-05T01:36:47.046Z,100208.73
2022-08-05T01:39:47.169Z,100205.98
2022-08-05T01:42:09.719Z,100207.56
2022-08-05T01:44:39.240Z,100206.34
2022-08-05T01:47:10.622Z,100207.92
2022-08-05T01:50:00.413Z,100204.50
2022-08-05T01:52:32.375Z,100202.42
2022-08-05T01:55:05.492Z,100198.39
2022-08-05T01:58:29.847Z,100200.10
2022-08-05T02:00:30.489Z,100197.73
2022-08-05T02:03:04.285Z,100196.71
2022-08-05T02:05:36.563Z,100198.41
2022-08-05T02:08:05.560Z,100196.48
2022-08-05T02:10:44.661Z,100196.72
2022-08-05T02:13:21.039Z,100192.41
2022-08-05T02:16:22.103Z,100191.57
2022-08-05T02:18:56.609Z,100189.17
2022-08-05T02:21:52.565Z,100189.92
2022-08-05T02:24:26.808Z,100183.12
2022-08-05T02:26:58.191Z,100183.55
2022-08-05T02:29:59.703Z,100186.55
2022-08-05T02:32:24.064Z,100182.36
2022-08-05T02:35:02.024Z,100181.41
2022-08-05T02:37:47.623Z,100180.85
2022-08-05T02:40:24.351Z,100180.11
2022-08-05T02:42:55.544Z,100180.02
2022-08-05T02:45:25.414Z,100180.36
2022-08-05T02:48:07.357Z,100179.23
2022-08-05T02:50:47.030Z,100175.75
2022-08-05T02:53:19.418Z,100176.67
2022-08-05T02:55:59.537Z,100173.48
2022-08-05T02:58:30.292Z,100174.13
2022-08-05T03:01:02.269Z,100173.82
2022-08-05T03:03:34.086Z,100172.54
2022-08-05T03:06:55.444Z,100171.40
2022-08-05T03:09:12.531Z,100170.94
2022-08-05T03:11:54.822Z,100171.88
2022-08-05T03:14:25.421Z,100171.62
2022-08-05T03:16:54.169Z,100170.32
2022-08-05T03:19:33.993Z,100170.41
2022-08-05T03:22:05.093Z,100167.63
2022-08-05T03:24:47.193Z,100165.44
2022-08-05T03:27:20.682Z,100163.20
2022-08-05T03:30:08.191Z,100164.04
2022-08-05T03:32:37.698Z,100160.71
2022-08-05T03:35:06.144Z,100161.56
2022-08-05T03:37:41.009Z,100158.62
2022-08-05T03:40:15.488Z,100159.48
2022-08-05T03:42:53.076Z,100158.91
2022-08-05T03:45:23.250Z,100154.21
2022-08-05T03:47:51.841Z,100149.58
2022-08-05T03:50:28.714Z,100150.48
2022-08-05T03:55:49.952Z,100149.79
2022-08-05T03:56:11.591Z,100153.06
2022-08-05T03:58:47.001Z,100156.16
2022-08-05T04:01:20.920Z,100158.05
2022-08-05T04:04:08.845Z,100159.92
2022-08-05T04:06:47.867Z,100158.80
2022-08-05T04:09:25.803Z,100161.95
2022-08-05T04:11:56.526Z,100157.10
2022-08-05T04:14:30.356Z,100151.68
2022-08-05T04:17:00.709Z,100155.58
2022-08-05T04:19:29.422Z,100148.99
2022-08-05T04:22:09.917Z,100149.34
2022-08-05T04:24:43.789Z,100150.98
2022-08-05T04:27:13.969Z,100144.43
2022-08-05T04:29:43.150Z,100146.36
2022-08-05T04:32:10.763Z,100144.89
2022-08-05T04:34:42.608Z,100140.54
2022-08-05T04:37:11.256Z,100139.05
2022-08-05T04:39:39.235Z,100138.23
2022-08-05T04:42:09.138Z,100140.52
2022-08-05T04:44:36.968Z,100141.41
2022-08-05T04:47:08.907Z,100144.56
2022-08-05T04:50:01.474Z,100144.00
2022-08-05T04:52:28.205Z,100142.96
2022-08-05T04:54:57.303Z,100147.91
2022-08-05T04:57:28.980Z,100149.47
2022-08-05T04:59:58.660Z,100150.06
2022-08-05T05:02:36.305Z,100150.34
2022-08-05T05:05:17.038Z,100148.15
2022-08-05T05:08:01.540Z,100144.64
2022-08-05T05:10:33.284Z,100146.20
2022-08-05T05:13:04.018Z,100144.44
2022-08-05T05:15:57.059Z,100142.15
2022-08-05T05:18:31.405Z,100141.52
2022-08-05T05:21:03.561Z,100143.63
2022-08-05T05:23:39.367Z,100143.70
2022-08-05T05:26:19.697Z,100141.61
2022-08-05T05:28:56.997Z,100140.29
2022-08-05T05:31:25.201Z,100139.54
2022-08-05T05:34:02.162Z,100140.59
2022-08-05T05:36:31.698Z,100140.92
2022-08-05T05:38:59.517Z,100142.85
2022-08-05T05:41:40.732Z,100141.11
2022-08-05T05:44:35.817Z,100139.71
2022-08-05T05:46:58.402Z,100138.29
2022-08-05T05:49:33.075Z,100139.88
2022-08-05T05:52:01.331Z,100141.73
2022-08-05T05:54:35.040Z,100141.35
2022-08-05T05:57:19.768Z,100140.83
2022-08-05T05:59:48.782Z,100138.85
2022-08-05T06:02:17.173Z,100136.50
2022-08-05T06:05:00.343Z,100137.87
2022-08-05T06:07:41.264Z,100134.85
2022-08-05T06:10:11.221Z,100137.80
2022-08-05T06:12:42.247Z,100142.14
2022-08-05T06:15:23.537Z,100146.34
2022-08-05T06:17:53.315Z,100143.92
2022-08-05T06:20:21.900Z,100138.66
2022-08-05T06:22:49.939Z,100134.64
2022-08-05T06:25:25.322Z,100135.67
2022-08-05T06:28:12.351Z,100139.70
2022-08-05T06:30:49.233Z,100138.06
2022-08-05T06:33:19.053Z,100139.48
2022-08-05T06:36:03.841Z,100138.90
2022-08-05T06:38:36.399Z,100138.67
2022-08-05T06:41:07.893Z,100136.05
2022-08-05T06:43:57.412Z,100136.34
2022-08-05T06:46:29.747Z,100132.76
2022-08-05T06:49:00.844Z,100133.81
2022-08-05T06:51:30.998Z,100132.83
2022-08-05T06:54:01.654Z,100131.98
2022-08-05T06:56:34.290Z,100132.46
2022-08-05T06:59:09.422Z,100129.13
2022-08-05T07:01:40.883Z,100125.38
2022-08-05T07:04:10.767Z,100125.79
2022-08-05T07:06:42.299Z,100125.31
2022-08-05T07:09:09.890Z,100127.70
2022-08-05T07:11:39.791Z,100119.72
2022-08-05T07:14:29.395Z,100121.30
2022-08-05T07:17:59.398Z,100125.33
2022-08-05T07:20:32.106Z,100119.65
2022-08-05T07:22:38.830Z,100115.74
2022-08-05T07:25:24.010Z,100121.77
2022-08-05T07:28:02.353Z,100120.30
2022-08-05T07:30:39.126Z,100117.79
2022-08-05T07:33:15.776Z,100114.31
2022-08-05T07:36:03.138Z,100118.20
2022-08-05T07:38:43.758Z,100117.92
2022-08-05T07:42:14.418Z,100120.67
2022-08-05T07:44:14.312Z,100121.58
2022-08-05T07:46:49.400Z,100121.14
2022-08-05T07:49:19.103Z,100120.95
2022-08-05T07:51:54.056Z,100121.64
2022-08-05T07:54:30.903Z,100121.50
2022-08-05T07:57:17.575Z,100115.46
2022-08-05T07:59:52.318Z,100116.21
2022-08-05T08:02:30.840Z,100115.57
2022-08-05T08:05:00.421Z,100120.80
2022-08-05T08:07:29.192Z,100119.74
2022-08-05T08:10:07.920Z,100113.57
2022-08-05T08:12:49.387Z,100114.06
2022-08-05T08:15:17.740Z,100113.86
2022-08-05T08:18:09.731Z,100108.14
2022-08-05T08:21:00.568Z,100106.40
2022-08-05T08:24:01.606Z,100106.63
2022-08-05T08:26:29.403Z,100106.34
2022-08-05T08:29:09.803Z,100097.40
2022-08-05T08:31:48.406Z,100095.71
2022-08-05T08:34:30.178Z,100095.92
2022-08-05T08:37:04.607Z,100090.23
2022-08-05T08:39:37.238Z,100096.89
2022-08-05T08:42:32.381Z,100092.92
2022-08-05T08:45:24.264Z,100092.52
2022-08-05T08:48:12.752Z,100088.95
2022-08-05T08:51:04.084Z,100083.46
2022-08-05T08:53:28.966Z,100079.84
2022-08-05T08:56:03.141Z,100078.23
2022-08-05T08:58:37.104Z,100071.65
2022-08-05T09:01:16.728Z,100071.98
2022-08-05T09:03:57.610Z,100074.73
2022-08-05T09:06:29.849Z,100071.48
2022-08-05T09:09:00.542Z,100071.59
2022-08-05T09:11:51.394Z,100074.05
2022-08-05T09:14:56.546Z,100071.04
2022-08-05T09:17:41.021Z,100066.23
2022-08-05T09:20:02.881Z,100063.33
2022-08-05T09:23:08.937Z,100062.70
2022-08-05T09:26:02.755Z,100061.38
2022-08-05T09:28:32.112Z,100055.38
2022-08-05T09:31:22.458Z,100058.77
2022-08-05T09:33:58.437Z,100055.08
2022-08-05T09:36:56.268Z,100051.95
2022-08-05T09:39:45.215Z,100043.66
2022-08-05T09:42:27.704Z,100043.21
2022-08-05T09:45:03.282Z,100041.55
2022-08-05T09:47:55.351Z,100039.04
2022-08-05T09:50:38.927Z,100033.94
2022-08-05T09:53:22.721Z,100030.83
2022-08-05T09:56:11.417Z,100030.58
2022-08-05T09:58:41.650Z,100035.98
2022-08-05T10:01:15.197Z,100027.05
2022-08-05T10:04:10.711Z,100028.92
2022-08-05T10:06:40.620Z,100024.92
2022-08-05T10:09:27.418Z,100021.95
2022-08-05T10:12:18.459Z,100021.71
2022-08-05T10:15:16.296Z,100024.86
2022-08-05T10:18:03.380Z,100020.34
2022-08-05T10:20:33.672Z,100014.83
2022-08-05T10:23:01.927Z,100016.28
2022-08-05T10:25:31.182Z,100012.07
2022-08-05T10:28:13.339Z,100014.98
2022-08-05T10:32:52.142Z,100007.86
2022-08-05T10:33:36.119Z,100003.40
2022-08-05T10:36:05.895Z,100000.76
2022-08-05T10:38:35.672Z,100001.06
2022-08-05T10:41:29.050Z,99999.04
2022-08-05T10:44:20.199Z,99999.06
2022-08-05T10:46:54.265Z,99996.84
2022-08-05T10:49:26.845Z,99993.48
2022-08-05T10:52:02.611Z,99988.69
2022-08-05T10:54:56.176Z,99989.96
2022-08-05T10:57:31.877Z,99987.05
2022-08-05T11:00:22.845Z,99975.98
2022-08-05T11:03:23.260Z,99971.77
2022-08-05T11:06:15.344Z,99963.80
2022-08-05T11:09:16.733Z,99958.98
2022-08-05T11:11:52.611Z,99955.77
2022-08-05T11:14:57.667Z,99957.41
2022-08-05T11:17:57.515Z,99950.15
2022-08-05T11:20:34.358Z,99948.00
2022-08-05T11:24:03.091Z,99952.55
2022-08-05T11:26:28.670Z,99948.50
2022-08-05T11:29:11.841Z,99950.88
2022-08-05T11:31:56.338Z,99949.20
2022-08-05T11:34:50.919Z,99954.09
2022-08-05T11:38:29.639Z,99949.15
2022-08-05T11:41:03.618Z,99943.67
2022-08-05T11:44:07.442Z,99936.70
2022-08-05T11:46:58.241Z,99937.17
2022-08-05T11:49:38.115Z,99940.66
2022-08-05T11:52:08.643Z,99951.67
2022-08-05T11:54:41.453Z,99945.40
2022-08-05T11:57:26.077Z,99944.73
2022-08-05T11:59:55.723Z,99945.66
2022-08-05T12:02:31.511Z,99940.45
2022-08-05T12:05:07.189Z,99937.91
2022-08-05T12:08:08.296Z,99944.25
2022-08-05T12:10:43.053Z,99940.20
2022-08-05T12:13:28.042Z,99944.14
2022-08-05T12:16:14.652Z,99939.65
2022-08-05T12:18:49.062Z,99939.97
2022-08-05T12:21:31.861Z,99941.19
2022-08-05T12:24:06.892Z,99936.36
2022-08-05T12:26:47.349Z,99935.29
2022-08-05T12:29:17.853Z,99929.27
2022-08-05T12:31:54.498Z,99929.08
2022-08-05T12:34:28.869Z,99926.41
2022-08-05T12:37:07.384Z,99920.84
2022-08-05T12:39:38.775Z,99920.38
2022-08-05T12:42:16.957Z,99922.45
2022-08-05T12:44:47.623Z,99929.77
2022-08-05T12:47:32.812Z,99927.16
2022-08-05T12:50:14.208Z,99922.58
2022-08-05T12:52:42.894Z,99913.44
2022-08-05T12:55:28.323Z,99914.10
2022-08-05T12:58:38.175Z,99911.70
2022-08-05T13:02:04.061Z,99902.46
2022-08-05T13:03:41.511Z,99903.30
2022-08-05T13:06:16.033Z,99900.02
2022-08-05T13:08:50.818Z,99892.75
2022-08-05T13:12:01.829Z,99887.30
2022-08-05T13:14:36.454Z,99885.44
2022-08-05T13:17:41.701Z,99883.31
2022-08-05T13:20:16.528Z,99875.64
2022-08-05T13:22:49.478Z,99861.23
2022-08-05T13:25:22.249Z,99858.25
2022-08-05T13:28:06.716Z,99852.97
2022-08-05T13:30:39.109Z,99855.81
2022-08-05T13:33:07.364Z,99846.52
2022-08-05T13:35:42.756Z,99846.98
2022-08-05T13:38:20.247Z,99842.98
2022-08-05T13:41:00.269Z,99844.83
2022-08-05T13:43:44.246Z,99839.52
2022-08-05T13:46:14.144Z,99833.00
2022-08-05T13:48:57.875Z,99828.29
2022-08-05T13:51:29.668Z,99833.09
2022-08-05T13:54:12.473Z,99822.33
2022-08-05T13:56:45.398Z,99824.72
2022-08-05T13:59:26.879Z,99820.41
2022-08-05T14:01:58.708Z,99820.02
2022-08-05T14:04:49.694Z,99820.05
2022-08-05T14:07:59.657Z,99820.70
2022-08-05T14:10:19.207Z,99825.99
2022-08-05T14:12:57.117Z,99823.81
2022-08-05T14:16:04.664Z,99823.77
2022-08-05T14:18:17.467Z,99820.09
2022-08-05T14:20:48.124Z,99812.02
2022-08-05T14:23:23.858Z,99808.45
2022-08-05T14:25:58.436Z,99809.10
2022-08-05T14:28:28.672Z,99810.54
2022-08-05T14:31:00.605Z,99808.70
2022-08-05T14:33:32.687Z,99806.75
2022-08-05T14:36:21.373Z,99807.67
2022-08-05T14:38:50.026Z,99807.48
2022-08-05T14:41:18.654Z,99807.98
2022-08-05T14:44:01.645Z,99813.02
2022-08-05T14:46:35.304Z,99813.71
2022-08-05T14:49:07.200Z,99808.66
2022-08-05T14:51:38.113Z,99807.13
2022-08-05T14:54:29.983Z,99807.21
2022-08-05T14:56:55.780Z,99806.21
2022-08-05T14:59:23.697Z,99800.96
2022-08-05T15:01:51.529Z,99794.07
2022-08-05T15:04:22.435Z,99798.73
2022-08-05T15:06:51.130Z,99798.34
2022-08-05T15:09:51.374Z,99792.82
2022-08-05T15:12:17.042Z,99794.55
2022-08-05T15:14:50.325Z,99796.10
2022-08-05T15:17:46.896Z,99795.00
2022-08-05T15:20:15.589Z,99789.27
2022-08-05T15:22:54.029Z,99784.80
2022-08-05T15:25:50.910Z,99782.34
2022-08-05T15:28:14.867Z,99784.55
2022-08-05T15:30:45.750Z,99785.05
2022-08-05T15:34:18.917Z,99786.53
2022-08-05T15:36:05.101Z,99790.36
2022-08-05T15:38:41.832Z,99793.58
2022-08-05T15:41:23.188Z,99790.73
2022-08-05T15:43:54.718Z,99798.54
2022-08-05T15:46:24.734Z,99798.34
2022-08-05T15:49:00.936Z,99803.54
2022-08-05T15:52:09.950Z,99804.08
2022-08-05T15:54:35.026Z,99802.04
2022-08-05T15:57:07.337Z,99801.66
2022-08-05T15:59:36.602Z,99797.31
2022-08-05T16:02:09.571Z,99796.22
2022-08-05T16:04:43.463Z,99794.00
2022-08-05T16:07:12.102Z,99790.55
2022-08-05T16:09:43.477Z,99790.84
2022-08-05T16:12:11.695Z,99784.33
2022-08-05T16:14:39.950Z,99779.25
2022-08-05T16:17:07.740Z,99775.38
2022-08-05T16:20:05.576Z,99775.66
2022-08-05T16:22:27.728Z,99777.17
2022-08-05T16:25:08.052Z,99771.89
2022-08-05T16:28:00.116Z,99774.43
2022-08-05T16:30:28.824Z,99771.77
2022-08-05T16:33:00.993Z,99770.35
2022-08-05T16:35:32.055Z,99766.86
2022-08-05T16:38:24.606Z,99767.35
2022-08-05T16:40:55.097Z,99762.38
2022-08-05T16:43:30.205Z,99764.37
2022-08-05T16:46:05.379Z,99761.91
2022-08-05T16:48:38.457Z,99760.63
2022-08-05T16:51:09.692Z,99768.00
2022-08-05T16:54:02.437Z,99762.52
2022-08-05T16:56:30.145Z,99763.70
2022-08-05T16:58:58.363Z,99761.66
2022-08-05T17:01:26.672Z,99761.24
2022-08-05T17:03:54.387Z,99757.89
2022-08-05T17:06:24.689Z,99760.96
2022-08-05T17:08:54.315Z,99754.94
2022-08-05T17:11:23.756Z,99754.41
2022-08-05T17:14:00.182Z,99751.13
2022-08-05T17:16:36.821Z,99749.52
2022-08-05T17:19:07.642Z,99747.55
2022-08-05T17:21:39.683Z,99748.59
2022-08-05T17:24:19.554Z,99750.58
2022-08-05T17:26:58.241Z,99754.81
2022-08-05T17:29:33.098Z,99751.60
2022-08-05T17:32:16.754Z,99753.65
2022-08-05T17:34:48.147Z,99747.73
2022-08-05T17:37:40.340Z,99746.41
2022-08-05T17:40:14.429Z,99749.42
2022-08-05T17:42:50.996Z,99750.41
2022-08-05T17:45:22.174Z,99751.48
2022-08-05T17:47:55.114Z,99753.66
2022-08-05T17:50:28.637Z,99751.58
2022-08-05T17:53:00.023Z,99750.80
2022-08-05T17:55:38.425Z,99754.91
2022-08-05T17:58:11.215Z,99755.65
2022-08-05T18:00:44.935Z,99756.69
2022-08-05T18:03:48.434Z,99759.92
2022-08-05T18:06:11.005Z,99754.67
2022-08-05T18:08:44.593Z,99760.22
2022-08-05T18:11:24.349Z,99760.80
2022-08-05T18:13:57.467Z,99760.19
2022-08-05T18:16:27.606Z,99760.85
2022-08-05T18:18:55.273Z,99763.05
2022-08-05T18:21:26.026Z,99762.85
2022-08-05T18:23:55.877Z,99765.11
2022-08-05T18:26:27.732Z,99767.45
2022-08-05T18:28:59.976Z,99763.21
2022-08-05T18:31:33.020Z,99761.61
2022-08-05T18:34:05.746Z,99765.54
2022-08-05T18:36:35.393Z,99768.25
2022-08-05T18:39:22.428Z,99770.05
2022-08-05T18:42:01.833Z,99768.54
2022-08-05T18:44:35.476Z,99771.99
2022-08-05T18:47:17.290Z,99770.66
2022-08-05T18:50:00.869Z,99774.67
2022-08-05T18:52:50.913Z,99776.89
2022-08-05T18:55:21.549Z,99778.34
2022-08-05T18:57:53.232Z,99778.97
2022-08-05T19:00:27.234Z,99781.50
2022-08-05T19:03:03.697Z,99784.16
2022-08-05T19:06:11.088Z,99778.51
2022-08-05T19:08:30.733Z,99781.29
2022-08-05T19:10:59.680Z,99782.42
2022-08-05T19:13:36.043Z,99783.01
2022-08-05T19:16:25.394Z,99781.31
2022-08-05T19:18:56.588Z,99780.90
2022-08-05T19:21:29.422Z,99782.61
2022-08-05T19:24:06.524Z,99780.44
2022-08-05T19:26:43.774Z,99777.40
2022-08-05T19:29:36.015Z,99782.00
2022-08-05T19:32:08.673Z,99779.08
2022-08-05T19:34:39.692Z,99782.92
2022-08-05T19:37:09.916Z,99788.11
2022-08-05T19:39:47.740Z,99790.39
2022-08-05T19:42:35.002Z,99789.50
2022-08-05T19:45:05.624Z,99792.90
2022-08-05T19:47:37.149Z,99790.60
2022-08-05T19:50:07.791Z,99782.05
2022-08-05T19:52:40.080Z,99782.23
2022-08-05T19:56:12.476Z,99779.50
2022-08-05T19:58:10.364Z,99780.73
2022-08-05T20:00:44.082Z,99780.33
2022-08-05T20:03:11.868Z,99785.96
2022-08-05T20:05:43.269Z,99783.32
2022-08-05T20:08:18.697Z,99790.81
2022-08-05T20:10:49.339Z,99785.21
2022-08-05T20:13:18.017Z,99788.99
2022-08-05T20:15:58.086Z,99790.21
2022-08-05T20:18:33.747Z,99788.89
2022-08-05T20:21:06.744Z,99786.55
2022-08-05T20:23:39.930Z,99787.18
2022-08-05T20:26:24.815Z,99789.03
2022-08-05T20:28:56.402Z,99787.61
2022-08-05T20:31:36.988Z,99791.80
2022-08-05T20:34:12.524Z,99793.02
2022-08-05T20:36:43.418Z,99790.09
2022-08-05T20:39:16.220Z,99789.34
2022-08-05T20:41:47.747Z,99792.34
2022-08-05T20:44:29.424Z,99798.55
2022-08-05T20:47:01.438Z,99800.58
2022-08-05T20:49:29.101Z,99802.73
2022-08-05T20:51:58.029Z,99809.00
2022-08-05T20:54:43.025Z,99808.38
2022-08-05T20:57:14.363Z,99820.42
2022-08-05T20:59:46.329Z,99823.16
2022-08-05T21:02:29.847Z,99826.90
2022-08-05T21:04:57.418Z,99824.95
2022-08-05T21:07:25.140Z,99821.34
2022-08-05T21:10:13.776Z,99852.73
2022-08-05T21:12:41.481Z,99880.73
2022-08-05T21:15:26.253Z,99859.25
2022-08-05T21:18:01.845Z,99856.00
2022-08-05T21:20:32.811Z,99883.98
2022-08-05T21:23:01.387Z,99882.16
2022-08-05T21:25:33.674Z,99887.34
2022-08-05T21:28:03.104Z,99884.81
2022-08-05T21:30:31.607Z,99878.22
2022-08-05T21:32:59.811Z,99871.77
2022-08-05T21:35:55.457Z,99865.58
2022-08-05T21:38:19.123Z,99863.61
2022-08-05T21:40:46.824Z,99857.88
2022-08-05T21:43:17.873Z,99859.73
2022-08-05T21:45:57.614Z,99860.95
2022-08-05T21:48:28.850Z,99857.66
2022-08-05T21:50:57.178Z,99858.31
2022-08-05T21:53:27.196Z,99858.27
2022-08-05T21:56:06.574Z,99867.66
2022-08-05T21:58:48.271Z,99870.52
2022-08-05T22:01:26.716Z,99875.24
2022-08-05T22:03:54.431Z,99879.02
2022-08-05T22:06:34.769Z,99890.45
2022-08-05T22:09:13.805Z,99891.82
2022-08-05T22:11:46.775Z,99888.28
2022-08-05T22:14:37.460Z,99889.73
2022-08-05T22:17:06.819Z,99898.70
2022-08-05T22:20:02.225Z,99896.50
2022-08-05T22:22:27.093Z,99895.60
2022-08-05T22:25:18.090Z,99886.89
2022-08-05T22:28:09.298Z,99893.85
2022-08-05T22:30:55.668Z,99891.71
2022-08-05T22:33:57.633Z,99893.77
2022-08-05T22:36:16.687Z,99902.71
2022-08-05T22:38:48.661Z,99913.20
2022-08-05T22:41:26.493Z,99924.80
2022-08-05T22:44:07.820Z,99926.63
2022-08-05T22:46:40.011Z,99934.83
2022-08-05T22:49:12.506Z,99933.84
2022-08-05T22:52:04.395Z,99948.94
2022-08-05T22:54:36.092Z,99953.05
2022-08-05T22:57:05.863Z,99957.75
2022-08-05T22:59:45.895Z,99951.54
2022-08-05T23:02:18.097Z,99948.51
2022-08-05T23:04:52.147Z,99943.10
2022-08-05T23:07:21.717Z,99934.66
2022-08-05T23:09:57.977Z,99933.73
2022-08-05T23:12:32.566Z,99928.14
2022-08-05T23:15:03.398Z,99926.05
2022-08-05T23:17:37.225Z,99920.75
2022-08-05T23:20:15.553Z,99931.12
2022-08-05T23:22:47.595Z,99953.14
2022-08-05T23:25:53.008Z,99962.87
2022-08-05T23:28:07.084Z,99978.70
2022-08-05T23:30:40.175Z,99985.61
2022-08-05T23:33:22.334Z,99985.30
2022-08-05T23:35:55.094Z,99977.59
2022-08-05T23:38:26.052Z,99981.09
2022-08-05T23:40:54.441Z,99978.07
2022-08-05T23:43:25.572Z,99980.48
2022-08-05T23:46:20.117Z,99976.50
2022-08-05T23:49:00.941Z,99974.95
2022-08-05T23:51:53.732Z,99986.23
2022-08-05T23:54:30.467Z,99997.53
2022-08-05T23:57:03.712Z,99999.57
